Meteo Giornale » Osservazioni meteo Tunisia » Djerba Mellita
ore: 20:00 - Osservazioni Meteo Djerba Mellita
Lat. 33° 52' N Lon. 10° 46' E Alt. 3 metri s.l.m.
32 °C
Sereno
Temp. 24 Ore
29 °C
36 °C
Est/Nord-Est
11.1 Km/h
Dew point 24 °C
Umidità 62 %
Visibilità 10 Km
Il sole sorge alle ore 05:50
Il sole tramonta alle ore 18:43
| Data e Ora | Cielo e Fenomeni | T °C | DP °C | Um. % | Pres. hPa | Vis. km | Vento km/h | |
|---|---|---|---|---|---|---|---|---|
| Oggi h: 20:00 | Sereno | 32 | 24 | 62 | 1017 | 10 | E/NE 11.1 | |
| Oggi h: 19:30 | Sereno | 33 | 23 | 55 | 1016 | 10 | E/NE 11.1 | |
| Oggi h: 19:00 | Sereno | 33 | 22 | 52 | 1016 | 10 | E/NE 9.3 | |
| Oggi h: 18:30 | Sereno | 33 | 22 | 52 | 1016 | 10 | N 5.5 | |
| Oggi h: 18:00 | Sereno | 33 | 23 | 55 | 1016 | 10 | E/NE 11.1 | |
| Oggi h: 17:30 | Sereno | 33 | 24 | 59 | 1016 | 10 | E/NE 16.7 | |
| Oggi h: 17:00 | Sereno | 34 | 23 | 52 | 1016 | 10 | NE 16.7 | |
| Oggi h: 16:30 | Sereno | 34 | 22 | 49 | 1016 | 10 | E/NE 18.5 | |
| Oggi h: 16:00 | Sereno | 35 | 21 | 44 | 1016 | 10 | E/NE 18.5 | |
| Oggi h: 15:30 | Sereno | 35 | 21 | 44 | 1016 | 10 | E/NE 18.5 | |
| Oggi h: 15:00 | Sereno | 35 | 23 | 49 | 1016 | 10 | NE 18.5 | |
| Oggi h: 14:30 | Sereno | 35 | 20 | 41 | 1017 | 10 | NE 18.5 | |
| Oggi h: 14:00 | Sereno | 34 | 23 | 52 | 1017 | 10 | NE 16.7 | |
| Oggi h: 13:30 | Sereno | 35 | 23 | 49 | 1017 | 10 | NE 16.7 | |
| Oggi h: 13:00 | Sereno | 35 | 19 | 39 | 1017 | 10 | NE 16.7 | |
| Oggi h: 12:30 | Poco Nuvoloso | 35 | 23 | 49 | 1018 | 10 | NE 18.5 | |
| Oggi h: 12:00 | Poco Nuvoloso | 35 | 23 | 49 | 1018 | 10 | NE 14.8 | |
| Oggi h: 11:30 | Poco Nuvoloso | 35 | 24 | 53 | 1018 | 10 | NE 16.7 | |
| Oggi h: 11:00 | Poco Nuvoloso | 36 | 22 | 44 | 1018 | 10 | NE 16.7 | |
| Oggi h: 10:30 | Poco Nuvoloso | 36 | 21 | 41 | 1018 | 10 | E 14.8 | |
| Oggi h: 10:00 | Poco Nuvoloso | 35 | 20 | 41 | 1017 | 10 | E 18.5 | |
| Oggi h: 09:30 | Poco Nuvoloso | 35 | 21 | 44 | 1017 | 10 | E 16.7 | |
| Oggi h: 09:00 | Poco Nuvoloso | 34 | 25 | 59 | 1017 | 10 | E 13 | |
| Oggi h: 08:30 | Poco Nuvoloso | 33 | 25 | 62 | 1017 | 10 | E/NE 16.7 | |
| Oggi h: 08:00 | Poco Nuvoloso | 33 | 26 | 66 | 1017 | 10 | E/NE 14.8 | |
| Oggi h: 07:30 | Poco Nuvoloso | 32 | 26 | 70 | 1016 | 10 | E 18.5 | |
| Oggi h: 07:00 | Poco Nuvoloso | 31 | 28 | 84 | 1016 | 8 | E/NE 14.8 | |
| Oggi h: 06:30 | Poco Nuvoloso | 31 | 27 | 79 | 1016 | 8 | E/NE 13 | |
| Oggi h: 06:00 | Poco Nuvoloso | 31 | 27 | 79 | 1016 | 10 | N/NE 11.1 | |
| Oggi h: 05:30 | Poco Nuvoloso | 30 | 27 | 84 | 1017 | 10 | N 33.3 | |
| Oggi h: 05:00 | Sereno | 29 | 25 | 79 | 1015 | 10 | N 3.7 | |
| Oggi h: 04:30 | Sereno | 29 | 25 | 79 | 1015 | 10 | N 5.5 | |
| Oggi h: 04:00 | Sereno | 29 | 25 | 79 | 1015 | 10 | S 7.4 | |
| Oggi h: 03:30 | Sereno | 29 | 25 | 79 | 1015 | 8 | S 7.4 | |
| Oggi h: 03:00 | Sereno | 29 | 25 | 79 | 1015 | 8 | S 11.1 | |
| Oggi h: 02:30 | Sereno | 30 | 25 | 74 | 1015 | 8 | N 5.5 | |
| Oggi h: 02:00 | Sereno | 31 | 25 | 70 | 1016 | 8 | N 5.5 | |
| Oggi h: 01:30 | Sereno | 32 | 26 | 70 | 1016 | 8 | E 9.3 | |
| Oggi h: 01:00 | Sereno | 32 | 26 | 70 | 1016 | 8 | E 11.1 | |
| Oggi h: 00:30 | Sereno | 32 | 26 | 70 | 1017 | 8 | E 13 | |
| Oggi h: 00:00 | Sereno | 32 | 25 | 66 | 1017 | 8 | E/NE 14.8 | |
| Ieri h: 23:30 | Sereno | 33 | 24 | 59 | 1017 | 8 | E/NE 18.5 | |
| Ieri h: 23:00 | Sereno | 33 | 24 | 59 | 1017 | 8 | NE 16.7 | |
| Ieri h: 22:30 | Sereno | 33 | 26 | 66 | 1017 | 8 | N/NE 24 | |
| Ieri h: 22:00 | Sereno | 33 | 27 | 70 | 1016 | 8 | NE 24 | |
| Ieri h: 21:30 | Sereno | 33 | 28 | 75 | 1016 | 8 | N/NE 33.3 | |
| Ieri h: 21:00 | Sereno | 35 | 23 | 49 | 1016 | 8 | N 20.3 | |



